createdAt,value
2022-08-24T00:00:20.829Z,99.90
2022-08-24T00:02:48.850Z,99.90
2022-08-24T00:05:16.976Z,99.90
2022-08-24T00:07:44.398Z,99.90
2022-08-24T00:10:11.791Z,99.90
2022-08-24T00:12:40.746Z,99.90
2022-08-24T00:15:10.377Z,99.90
2022-08-24T00:17:37.498Z,99.90
2022-08-24T00:20:05.737Z,99.90
2022-08-24T00:22:32.891Z,99.90
2022-08-24T00:24:59.753Z,99.90
2022-08-24T00:27:27.049Z,99.90
2022-08-24T00:29:55.746Z,99.90
2022-08-24T00:32:22.949Z,99.90
2022-08-24T00:34:58.139Z,99.90
2022-08-24T00:37:28.677Z,99.90
2022-08-24T00:39:56.406Z,99.90
2022-08-24T00:42:24.728Z,99.90
2022-08-24T00:44:52.184Z,99.90
2022-08-24T00:47:25.695Z,99.90
2022-08-24T00:50:08.863Z,99.90
2022-08-24T00:52:40.077Z,99.90
2022-08-24T00:55:19.308Z,99.90
2022-08-24T00:57:56.118Z,99.90
2022-08-24T01:00:29.109Z,99.90
2022-08-24T01:03:01.550Z,99.90
2022-08-24T01:05:28.578Z,99.90
2022-08-24T01:07:56.484Z,99.90
2022-08-24T01:10:26.126Z,99.90
2022-08-24T01:13:00.486Z,99.90
2022-08-24T01:15:37.512Z,99.90
2022-08-24T01:18:25.996Z,99.90
2022-08-24T01:21:24.598Z,99.90
2022-08-24T01:23:58.209Z,99.90
2022-08-24T01:26:39.973Z,99.90
2022-08-24T01:29:17.133Z,99.90
2022-08-24T01:31:46.623Z,99.90
2022-08-24T01:34:14.028Z,99.90
2022-08-24T01:36:46.112Z,99.90
2022-08-24T01:39:25.310Z,99.90
2022-08-24T01:41:52.849Z,99.90
2022-08-24T01:44:21.337Z,99.90
2022-08-24T01:46:50.532Z,99.90
2022-08-24T01:49:17.438Z,99.90
2022-08-24T01:51:46.238Z,99.90
2022-08-24T01:54:15.007Z,99.90
2022-08-24T01:56:42.022Z,99.90
2022-08-24T01:59:12.422Z,99.90
2022-08-24T02:01:44.387Z,99.90
2022-08-24T02:04:11.445Z,99.90
2022-08-24T02:06:45.785Z,99.90
2022-08-24T02:09:14.454Z,99.90
2022-08-24T02:11:43.240Z,99.90
2022-08-24T02:14:14.573Z,99.90
2022-08-24T02:16:42.735Z,99.90
2022-08-24T02:19:10.955Z,99.90
2022-08-24T02:21:38.321Z,99.90
2022-08-24T02:24:07.349Z,99.90
2022-08-24T02:26:34.432Z,99.90
2022-08-24T02:29:03.887Z,99.90
2022-08-24T02:31:32.509Z,99.90
2022-08-24T02:34:00.191Z,99.90
2022-08-24T02:36:27.355Z,99.90
2022-08-24T02:38:58.121Z,99.90
2022-08-24T02:41:25.928Z,99.90
2022-08-24T02:43:55.225Z,99.90
2022-08-24T02:46:25.803Z,99.90
2022-08-24T02:49:03.143Z,99.90
2022-08-24T02:51:44.482Z,99.90
2022-08-24T02:54:19.418Z,99.90
2022-08-24T02:56:48.482Z,99.90
2022-08-24T02:59:17.021Z,99.90
2022-08-24T03:01:45.784Z,99.90
2022-08-24T03:04:14.690Z,99.90
2022-08-24T03:06:42.331Z,99.90
2022-08-24T03:09:09.369Z,99.90
2022-08-24T03:11:39.501Z,99.90
2022-08-24T03:14:11.750Z,99.90
2022-08-24T03:16:40.220Z,99.90
2022-08-24T03:19:08.653Z,99.90
2022-08-24T03:21:37.307Z,99.90
2022-08-24T03:24:05.540Z,99.90
2022-08-24T03:26:33.269Z,99.90
2022-08-24T03:29:00.406Z,99.90
2022-08-24T03:31:28.461Z,99.90
2022-08-24T03:33:55.412Z,99.90
2022-08-24T03:36:24.482Z,99.90
2022-08-24T03:38:51.430Z,99.90
2022-08-24T03:41:19.344Z,99.90
2022-08-24T03:43:47.377Z,99.90
2022-08-24T03:46:28.593Z,99.90
2022-08-24T03:48:59.140Z,99.90
2022-08-24T03:51:28.202Z,99.90
2022-08-24T03:54:00.578Z,99.90
2022-08-24T03:56:32.292Z,99.90
2022-08-24T03:59:01.883Z,99.90
2022-08-24T04:01:34.105Z,99.90
2022-08-24T04:04:01.476Z,99.90
2022-08-24T04:06:32.417Z,99.90
2022-08-24T04:08:59.596Z,99.90
2022-08-24T04:11:29.273Z,99.90
2022-08-24T04:13:57.933Z,99.90
2022-08-24T04:16:26.356Z,99.90
2022-08-24T04:19:04.074Z,99.90
2022-08-24T04:21:35.365Z,99.90
2022-08-24T04:24:07.286Z,99.90
2022-08-24T04:26:44.556Z,99.90
2022-08-24T04:29:18.588Z,99.90
2022-08-24T04:31:50.530Z,99.90
2022-08-24T04:34:18.561Z,99.90
2022-08-24T04:36:47.016Z,99.90
2022-08-24T04:39:18.001Z,99.90
2022-08-24T04:42:04.034Z,99.90
2022-08-24T04:44:36.646Z,99.90
2022-08-24T04:47:04.312Z,99.90
2022-08-24T04:49:33.537Z,99.90
2022-08-24T04:52:01.367Z,99.90
2022-08-24T04:54:28.926Z,99.90
2022-08-24T04:57:07.697Z,99.90
2022-08-24T04:59:35.288Z,99.90
2022-08-24T05:02:03.832Z,99.90
2022-08-24T05:04:31.289Z,99.90
2022-08-24T05:06:58.686Z,99.90
2022-08-24T05:09:29.271Z,99.90
2022-08-24T05:11:59.923Z,99.90
2022-08-24T05:14:29.854Z,99.90
2022-08-24T05:16:57.053Z,99.90
2022-08-24T05:19:25.709Z,99.90
2022-08-24T05:21:53.145Z,99.90
2022-08-24T05:24:20.445Z,99.90
2022-08-24T05:26:47.910Z,99.90
2022-08-24T05:29:19.041Z,99.90
2022-08-24T05:31:49.566Z,99.90
2022-08-24T05:34:17.957Z,99.90
2022-08-24T05:36:45.973Z,99.90
2022-08-24T05:39:28.520Z,99.90
2022-08-24T05:41:57.251Z,99.90
2022-08-24T05:44:30.781Z,99.90
2022-08-24T05:47:02.686Z,99.90
2022-08-24T05:49:31.098Z,99.90
2022-08-24T05:51:59.930Z,99.90
2022-08-24T05:54:27.064Z,99.90
2022-08-24T05:57:04.727Z,99.90
2022-08-24T05:59:38.096Z,99.90
2022-08-24T06:02:13.599Z,99.90
2022-08-24T06:04:41.073Z,99.90
2022-08-24T06:07:11.571Z,99.90
2022-08-24T06:09:42.454Z,99.90
2022-08-24T06:12:10.029Z,99.90
2022-08-24T06:14:40.113Z,99.90
2022-08-24T06:17:09.267Z,99.90
2022-08-24T06:19:37.495Z,99.90
2022-08-24T06:22:05.245Z,99.90
2022-08-24T06:24:55.549Z,99.90
2022-08-24T06:27:23.120Z,99.90
2022-08-24T06:29:57.087Z,99.90
2022-08-24T06:32:47.049Z,99.90
2022-08-24T06:35:23.818Z,99.90
2022-08-24T06:37:51.111Z,99.90
2022-08-24T06:40:22.294Z,99.90
2022-08-24T06:42:49.356Z,99.90
2022-08-24T06:45:22.453Z,99.90
2022-08-24T06:47:50.385Z,99.90
2022-08-24T06:50:18.635Z,99.90
2022-08-24T06:52:50.190Z,99.90
2022-08-24T06:55:17.113Z,99.90
2022-08-24T06:57:44.991Z,99.90
2022-08-24T07:00:14.674Z,99.90
2022-08-24T07:02:43.166Z,99.90
2022-08-24T07:05:10.629Z,99.90
2022-08-24T07:07:59.275Z,99.90
2022-08-24T07:10:28.174Z,99.90
2022-08-24T07:12:56.451Z,99.90
2022-08-24T07:15:24.009Z,99.90
2022-08-24T07:18:04.752Z,99.90
2022-08-24T07:20:31.946Z,99.90
2022-08-24T07:23:10.686Z,99.90
2022-08-24T07:25:38.265Z,99.90
2022-08-24T07:28:09.882Z,99.90
2022-08-24T07:30:37.580Z,99.90
2022-08-24T07:33:05.055Z,99.90
2022-08-24T07:35:34.437Z,99.90
2022-08-24T07:38:03.669Z,99.90
2022-08-24T07:40:55.851Z,99.90
2022-08-24T07:43:24.025Z,99.90
2022-08-24T07:45:53.611Z,99.90
2022-08-24T07:48:23.382Z,99.90
2022-08-24T07:50:51.389Z,99.90
2022-08-24T07:53:23.927Z,99.90
2022-08-24T07:55:56.771Z,99.90
2022-08-24T07:58:24.774Z,99.90
2022-08-24T08:00:51.988Z,99.90
2022-08-24T08:03:21.758Z,99.90
2022-08-24T08:05:49.576Z,99.90
2022-08-24T08:08:17.509Z,99.90
2022-08-24T08:10:46.709Z,99.90
2022-08-24T08:13:13.780Z,99.90
2022-08-24T08:15:41.960Z,99.90
2022-08-24T08:18:12.151Z,99.90
2022-08-24T08:20:42.887Z,99.90
2022-08-24T08:23:30.199Z,99.90
2022-08-24T08:26:15.428Z,99.90
2022-08-24T08:29:03.047Z,99.90
2022-08-24T08:31:34.387Z,99.90
2022-08-24T08:34:03.250Z,99.90
2022-08-24T08:36:32.487Z,99.90
2022-08-24T08:39:01.400Z,99.90
2022-08-24T08:41:56.271Z,99.90
2022-08-24T08:44:49.680Z,99.90
2022-08-24T08:51:12.110Z,99.90
2022-08-24T08:54:04.895Z,99.90
2022-08-24T08:56:59.395Z,99.90
2022-08-24T08:59:56.850Z,99.90
2022-08-24T09:03:03.411Z,99.90
2022-08-24T09:06:02.587Z,99.90
2022-08-24T09:08:51.917Z,99.90
2022-08-24T09:11:48.301Z,99.90
2022-08-24T09:14:34.470Z,99.90
2022-08-24T09:17:43.234Z,99.90
2022-08-24T09:20:19.371Z,99.90
2022-08-24T09:22:48.348Z,99.90
2022-08-24T09:25:26.290Z,99.90
2022-08-24T09:28:14.604Z,99.90
2022-08-24T09:34:10.275Z,99.90
2022-08-24T09:36:55.281Z,99.90
2022-08-24T09:39:35.927Z,99.90
2022-08-24T09:42:11.729Z,99.90
2022-08-24T09:44:38.573Z,99.90
2022-08-24T09:47:22.589Z,99.90
2022-08-24T09:50:23.727Z,99.90
2022-08-24T09:53:12.714Z,99.90
2022-08-24T09:55:56.678Z,99.90
2022-08-24T09:58:42.808Z,99.90
2022-08-24T10:01:31.415Z,99.90
2022-08-24T10:04:24.793Z,99.90
2022-08-24T10:07:10.771Z,99.90
2022-08-24T10:10:16.016Z,99.90
2022-08-24T10:12:56.468Z,99.90
2022-08-24T10:15:34.734Z,99.90
2022-08-24T10:18:17.864Z,99.90
2022-08-24T10:21:09.163Z,99.90
2022-08-24T10:23:51.120Z,99.90
2022-08-24T10:26:49.768Z,99.90
2022-08-24T10:29:19.663Z,99.90
2022-08-24T10:32:16.885Z,99.90
2022-08-24T10:35:01.497Z,99.90
2022-08-24T10:38:20.012Z,99.90
2022-08-24T10:41:09.978Z,99.90
2022-08-24T10:44:26.525Z,99.90
2022-08-24T10:47:06.830Z,99.90
2022-08-24T10:49:45.061Z,99.90
2022-08-24T10:52:47.004Z,99.90
2022-08-24T10:55:25.825Z,99.90
2022-08-24T10:58:47.399Z,99.90
2022-08-24T11:01:18.778Z,99.90
2022-08-24T11:04:01.387Z,99.90
2022-08-24T11:06:37.460Z,99.90
2022-08-24T11:09:19.193Z,99.90
2022-08-24T11:11:50.021Z,99.90
2022-08-24T11:14:26.784Z,99.90
2022-08-24T11:17:23.673Z,99.90
2022-08-24T11:19:51.998Z,99.90
2022-08-24T11:22:43.763Z,99.90
2022-08-24T11:25:22.631Z,99.90
2022-08-24T11:27:52.012Z,99.90
2022-08-24T11:30:19.000Z,99.90
2022-08-24T11:32:52.368Z,99.90
2022-08-24T11:35:39.804Z,99.90
2022-08-24T11:38:19.308Z,99.90
2022-08-24T11:41:01.262Z,99.90
2022-08-24T11:43:49.063Z,99.90
2022-08-24T11:46:19.447Z,99.90
2022-08-24T11:49:10.821Z,99.90
2022-08-24T11:52:19.226Z,99.90
2022-08-24T11:54:54.580Z,99.90
2022-08-24T11:57:48.326Z,99.90
2022-08-24T12:00:21.888Z,99.90
2022-08-24T12:03:20.244Z,99.90
2022-08-24T12:06:01.204Z,99.10
2022-08-24T12:08:35.737Z,98.30
2022-08-24T12:11:16.093Z,98.50
2022-08-24T12:13:52.765Z,98.30
2022-08-24T12:16:29.283Z,97.50
2022-08-24T12:19:11.490Z,96.70
2022-08-24T12:21:45.223Z,95.80
2022-08-24T12:24:18.095Z,94.70
2022-08-24T12:26:52.410Z,94.40
2022-08-24T12:29:57.640Z,94.80
2022-08-24T12:32:30.632Z,94.20
2022-08-24T12:35:03.637Z,93.80
2022-08-24T12:37:49.875Z,93.40
2022-08-24T12:40:35.749Z,92.70
2022-08-24T12:43:28.105Z,92.60
2022-08-24T12:46:01.829Z,92.40
2022-08-24T12:48:36.305Z,91.90
2022-08-24T12:51:37.242Z,91.90
2022-08-24T12:54:04.334Z,92.20
2022-08-24T12:56:49.713Z,91.90
2022-08-24T12:59:32.448Z,90.90
2022-08-24T13:02:05.408Z,90.10
2022-08-24T13:04:57.605Z,88.60
2022-08-24T13:07:24.403Z,86.70
2022-08-24T13:10:00.184Z,88.30
2022-08-24T13:12:39.348Z,87.00
2022-08-24T13:15:32.260Z,84.70
2022-08-24T13:18:14.604Z,83.10
2022-08-24T13:20:44.514Z,82.20
2022-08-24T13:23:11.420Z,81.40
2022-08-24T13:25:47.573Z,80.90
2022-08-24T13:28:20.669Z,80.70
2022-08-24T13:30:53.887Z,79.90
2022-08-24T13:33:35.835Z,78.80
2022-08-24T13:36:22.888Z,79.20
2022-08-24T13:39:15.174Z,76.80
2022-08-24T13:42:05.610Z,74.60
2022-08-24T13:44:51.104Z,73.00
2022-08-24T13:47:57.065Z,71.40
2022-08-24T13:50:40.172Z,72.50
2022-08-24T13:53:37.331Z,74.60
2022-08-24T13:56:32.998Z,75.50
2022-08-24T13:59:22.771Z,75.20
2022-08-24T14:02:34.331Z,75.00
2022-08-24T14:05:30.803Z,72.90
2022-08-24T14:08:16.881Z,75.70
2022-08-24T14:11:22.074Z,75.70
2022-08-24T14:13:58.063Z,75.40
2022-08-24T14:17:19.848Z,76.60
2022-08-24T14:20:14.304Z,77.50
2022-08-24T14:23:12.388Z,79.10
2022-08-24T14:25:40.177Z,80.50
2022-08-24T14:28:33.012Z,81.00
2022-08-24T14:31:15.813Z,80.80
2022-08-24T14:33:57.339Z,80.80
2022-08-24T14:36:46.605Z,81.60
2022-08-24T14:39:37.416Z,82.40
2022-08-24T14:42:33.122Z,81.30
2022-08-24T14:45:22.498Z,81.50
2022-08-24T14:48:16.421Z,82.70
2022-08-24T14:51:01.935Z,81.90
2022-08-24T14:54:07.474Z,81.70
2022-08-24T14:57:04.023Z,81.80
2022-08-24T14:59:58.649Z,81.40
2022-08-24T15:02:47.586Z,82.20
2022-08-24T15:05:23.146Z,84.10
2022-08-24T15:08:09.765Z,84.60
2022-08-24T15:10:44.215Z,84.30
2022-08-24T15:13:25.801Z,84.80
2022-08-24T15:16:10.580Z,85.80
2022-08-24T15:18:57.447Z,84.20
2022-08-24T15:21:48.923Z,84.00
2022-08-24T15:24:50.580Z,84.10
2022-08-24T15:27:27.158Z,84.00
2022-08-24T15:29:58.712Z,85.10
2022-08-24T15:32:43.650Z,86.00
2022-08-24T15:35:32.712Z,84.70
2022-08-24T15:38:32.888Z,83.60
2022-08-24T15:41:21.148Z,83.20
2022-08-24T15:44:03.860Z,83.10
2022-08-24T15:46:42.389Z,83.20
2022-08-24T15:49:21.868Z,82.70
2022-08-24T15:51:56.091Z,82.30
2022-08-24T15:54:25.942Z,82.70
2022-08-24T15:57:02.211Z,83.00
2022-08-24T15:59:47.694Z,82.50
2022-08-24T16:02:31.658Z,82.60
2022-08-24T16:05:10.904Z,82.50
2022-08-24T16:08:04.272Z,82.40
2022-08-24T16:10:46.353Z,82.40
2022-08-24T16:13:19.591Z,82.60
2022-08-24T16:15:50.499Z,83.20
2022-08-24T16:18:20.523Z,83.10
2022-08-24T16:20:49.573Z,83.00
2022-08-24T16:23:27.998Z,82.70
2022-08-24T16:26:22.662Z,83.40
2022-08-24T16:28:51.405Z,82.70
2022-08-24T16:31:41.449Z,83.00
2022-08-24T16:34:27.768Z,82.80
2022-08-24T16:36:55.109Z,82.90
2022-08-24T16:39:22.530Z,82.90
2022-08-24T16:41:57.634Z,83.30
2022-08-24T16:44:31.403Z,83.30
2022-08-24T16:46:58.397Z,83.90
2022-08-24T16:49:26.341Z,83.80
2022-08-24T16:51:54.887Z,84.20
2022-08-24T16:54:21.919Z,85.00
2022-08-24T16:56:50.121Z,85.30
2022-08-24T16:59:24.150Z,85.30
2022-08-24T17:01:51.314Z,85.00
2022-08-24T17:04:20.483Z,85.50
2022-08-24T17:06:50.879Z,85.60
2022-08-24T17:09:19.028Z,85.80
2022-08-24T17:11:47.144Z,85.70
2022-08-24T17:14:15.136Z,86.10
2022-08-24T17:16:42.583Z,86.50
2022-08-24T17:19:17.006Z,85.80
2022-08-24T17:21:44.809Z,86.00
2022-08-24T17:24:12.875Z,86.70
2022-08-24T17:26:47.509Z,87.20
2022-08-24T17:29:20.373Z,87.60
2022-08-24T17:31:52.551Z,87.90
2022-08-24T17:34:22.586Z,88.00
2022-08-24T17:36:51.468Z,88.10
2022-08-24T17:39:24.040Z,88.20
2022-08-24T17:41:55.624Z,88.10
2022-08-24T17:44:26.912Z,88.60
2022-08-24T17:46:57.783Z,89.50
2022-08-24T17:49:28.499Z,88.90
2022-08-24T17:51:56.929Z,89.20
2022-08-24T17:54:27.971Z,89.50
2022-08-24T17:56:57.343Z,90.00
2022-08-24T17:59:35.266Z,90.60
2022-08-24T18:02:05.379Z,91.10
2022-08-24T18:04:35.982Z,91.20
2022-08-24T18:07:12.072Z,91.50
2022-08-24T18:09:54.985Z,91.80
2022-08-24T18:12:24.627Z,92.00
2022-08-24T18:14:52.447Z,92.20
2022-08-24T18:17:23.770Z,92.60
2022-08-24T18:19:54.164Z,93.00
2022-08-24T18:22:22.139Z,93.30
2022-08-24T18:24:49.082Z,93.60
2022-08-24T18:27:26.424Z,94.00
2022-08-24T18:29:59.163Z,94.10
2022-08-24T18:32:30.925Z,94.40
2022-08-24T18:34:58.564Z,94.70
2022-08-24T18:37:25.559Z,95.20
2022-08-24T18:39:53.662Z,95.30
2022-08-24T18:42:25.499Z,95.80
2022-08-24T18:44:54.402Z,95.80
2022-08-24T18:47:21.469Z,96.00
2022-08-24T18:49:49.570Z,96.20
2022-08-24T18:52:18.991Z,96.50
2022-08-24T18:54:48.846Z,96.80
2022-08-24T18:57:19.845Z,97.10
2022-08-24T18:59:46.794Z,97.10
2022-08-24T19:02:33.146Z,97.30
2022-08-24T19:05:11.606Z,97.80
2022-08-24T19:07:50.210Z,97.80
2022-08-24T19:10:25.403Z,98.10
2022-08-24T19:12:56.416Z,98.40
2022-08-24T19:15:32.366Z,98.60
2022-08-24T19:18:11.540Z,98.80
2022-08-24T19:20:48.418Z,99.10
2022-08-24T19:23:25.739Z,99.20
2022-08-24T19:25:54.676Z,99.50
2022-08-24T19:28:24.187Z,99.60
2022-08-24T19:30:55.826Z,99.80
2022-08-24T19:33:26.731Z,99.90
2022-08-24T19:35:54.124Z,99.90
2022-08-24T19:38:25.425Z,99.90
2022-08-24T19:40:53.758Z,99.90
2022-08-24T19:43:20.663Z,99.90
2022-08-24T19:46:06.350Z,99.90
2022-08-24T19:48:39.829Z,99.90
2022-08-24T19:51:10.091Z,99.90
2022-08-24T19:53:38.469Z,99.90
2022-08-24T19:56:07.072Z,99.90
2022-08-24T19:59:02.109Z,99.90
2022-08-24T20:01:35.520Z,99.90
2022-08-24T20:04:06.292Z,99.90
2022-08-24T20:06:35.517Z,99.90
2022-08-24T20:09:03.906Z,99.90
2022-08-24T20:11:31.286Z,99.90
2022-08-24T20:13:58.413Z,99.90
2022-08-24T20:16:28.686Z,99.90
2022-08-24T20:18:56.074Z,99.90
2022-08-24T20:21:27.041Z,99.90
2022-08-24T20:23:57.705Z,99.90
2022-08-24T20:26:25.262Z,99.90
2022-08-24T20:28:53.672Z,99.90
2022-08-24T20:31:27.404Z,99.90
2022-08-24T20:33:57.224Z,99.90
2022-08-24T20:36:28.146Z,99.90
2022-08-24T20:38:57.498Z,99.90
2022-08-24T20:41:27.378Z,99.90
2022-08-24T20:43:54.883Z,99.90
2022-08-24T20:46:22.957Z,99.90
2022-08-24T20:48:55.749Z,99.90
2022-08-24T20:51:24.425Z,99.90
2022-08-24T20:53:51.670Z,99.90
2022-08-24T20:56:30.752Z,99.90
2022-08-24T20:59:00.706Z,99.90
2022-08-24T21:01:27.640Z,99.90
2022-08-24T21:03:54.633Z,99.90
2022-08-24T21:06:22.002Z,99.90
2022-08-24T21:08:51.642Z,99.90
2022-08-24T21:11:20.730Z,99.90
2022-08-24T21:13:48.059Z,99.90
2022-08-24T21:16:18.925Z,99.90
2022-08-24T21:18:47.032Z,99.90
2022-08-24T21:21:15.260Z,99.90
2022-08-24T21:23:42.195Z,99.90
2022-08-24T21:26:11.869Z,99.90
2022-08-24T21:28:41.914Z,99.90
2022-08-24T21:31:09.228Z,99.90
2022-08-24T21:33:54.582Z,99.90
2022-08-24T21:36:24.752Z,99.90
2022-08-24T21:38:54.634Z,99.90
2022-08-24T21:41:22.454Z,99.90
2022-08-24T21:43:51.268Z,99.90
2022-08-24T21:46:34.916Z,99.90
2022-08-24T21:49:03.681Z,99.90
2022-08-24T21:51:30.720Z,99.90
2022-08-24T21:53:59.931Z,99.90
2022-08-24T21:56:31.147Z,99.90
2022-08-24T21:58:58.438Z,99.90
2022-08-24T22:01:25.493Z,99.90
2022-08-24T22:03:52.434Z,99.90
2022-08-24T22:06:19.363Z,99.90
2022-08-24T22:08:46.429Z,99.90
2022-08-24T22:11:15.937Z,99.90
2022-08-24T22:13:43.004Z,99.90
2022-08-24T22:16:13.317Z,99.90
2022-08-24T22:18:40.893Z,99.90
2022-08-24T22:21:14.448Z,99.90
2022-08-24T22:23:44.042Z,99.90
2022-08-24T22:26:12.338Z,99.90
2022-08-24T22:28:41.773Z,99.90
2022-08-24T22:31:22.960Z,99.90
2022-08-24T22:33:50.131Z,99.90
2022-08-24T22:36:18.054Z,99.90
2022-08-24T22:38:45.640Z,99.90
2022-08-24T22:41:12.808Z,99.90
2022-08-24T22:43:59.375Z,99.90
2022-08-24T22:46:26.986Z,99.90
2022-08-24T22:48:55.411Z,99.90
2022-08-24T22:51:24.354Z,99.90
2022-08-24T22:53:51.882Z,99.90
2022-08-24T22:56:26.045Z,99.90
2022-08-24T22:58:53.268Z,99.90
2022-08-24T23:01:30.093Z,99.90
2022-08-24T23:03:59.784Z,99.90
2022-08-24T23:06:27.846Z,99.90
2022-08-24T23:08:56.119Z,99.90
2022-08-24T23:11:26.818Z,99.90
2022-08-24T23:13:56.448Z,99.90
2022-08-24T23:16:26.263Z,99.90
2022-08-24T23:19:12.526Z,99.90
2022-08-24T23:21:41.023Z,99.90
2022-08-24T23:24:10.348Z,99.90
2022-08-24T23:26:38.901Z,99.90
2022-08-24T23:29:07.726Z,99.90
2022-08-24T23:31:34.859Z,99.90
2022-08-24T23:34:01.918Z,99.90
2022-08-24T23:36:29.576Z,99.90
2022-08-24T23:38:59.850Z,99.90
2022-08-24T23:41:34.541Z,99.90
2022-08-24T23:44:03.910Z,99.90
2022-08-24T23:46:31.425Z,99.90
2022-08-24T23:49:02.835Z,99.90
2022-08-24T23:51:32.273Z,99.90
2022-08-24T23:54:01.741Z,99.90
2022-08-24T23:56:33.041Z,99.90
2022-08-24T23:59:07.513Z,99.90
